Home   Weather   USA   Washington DC   Past weeks
Flag for USA

Past Weather in Washington DC, USA — August 2018

Currently: 63 °F. Partly sunny. (Weather station: Reagan National Airport, USA). See more current weather

August 2018 Weather in Washington DC — Graph

°F

High & Low Weather Summary for August 2018

 TemperatureHumidityPressure
High94 °F (Aug 8, 4:52 pm)94% (Aug 2, 3:08 pm)30.28 "Hg (Aug 2, 3:08 pm)
Low65 °F (Aug 24, 5:52 am)36% (Aug 23, 12:52 pm)29.78 "Hg (Aug 22, 4:52 am)
Average80 °F71%30.03 "Hg
* Reported Aug 1 12:52 am — Aug 31 11:29 pm, Washington DC. Weather by CustomWeather, © 2021

Note: Actual official high and low records may vary slightly from our data, if they occured in-between our weather recording intervals... More about our weather records

Washington DC Weather History for August 1, 2018

Scroll right to see more
 ConditionsComfort  
Time TempWeatherWind HumidityBarometerVisibility
12:52 am
Wed, Aug 1
77 °FOvercast.6 mph88%30.03 "Hg10 mi
1:14 am77 °FLow clouds.6 mph88%30.02 "Hg10 mi
1:52 am77 °FMostly cloudy.9 mph88%30.01 "Hg10 mi
2:06 am77 °FHeavy rain. Fog.12 mph90%30.02 "Hg2 mi
2:12 am77 °FLight rain. Overcast.8 mph90%30.02 "Hg8 mi
3:00 am77 °FOvercast.13 mph88%30.02 "Hg10 mi
3:16 am75 °FLight rain. Mostly cloudy.12 mph85%30.02 "Hg10 mi
3:52 am74 °FLight rain. Overcast.3 mph85%30.01 "Hg8 mi
4:09 am74 °FLight rain. Overcast.No wind85%30.02 "Hg10 mi
4:28 am74 °FMostly cloudy.No wind85%30.02 "Hg10 mi
4:52 am74 °FMostly cloudy.3 mph88%30.01 "Hg10 mi
5:26 am74 °FMostly cloudy.5 mph88%30.02 "Hg10 mi
5:52 am75 °FPassing clouds.5 mph88%30.01 "Hg10 mi
6:20 am75 °FPartly sunny.5 mph88%30.02 "Hg10 mi
6:52 am76 °FBroken clouds.7 mph91%30.03 "Hg10 mi
7:52 am78 °FScattered clouds.13 mph82%30.04 "Hg10 mi
8:52 am78 °FPartly sunny.14 mph79%30.04 "Hg10 mi
9:29 am80 °FPartly sunny.13 mph76%30.05 "Hg10 mi
9:52 am81 °FPartly sunny.16 mph74%30.06 "Hg10 mi
10:52 am82 °FBroken clouds.14 mph72%30.06 "Hg10 mi
11:52 am84 °FBroken clouds.14 mph67%30.06 "Hg10 mi
12:52 pm84 °FBroken clouds.17 mph67%30.04 "Hg10 mi
1:52 pm86 °FPartly sunny.14 mph61%30.03 "Hg10 mi
2:52 pm88 °FScattered clouds.20 mph59%30.02 "Hg10 mi
3:52 pm88 °FScattered clouds.17 mph57%30.01 "Hg10 mi
4:52 pm87 °FScattered clouds.17 mph59%30.01 "Hg10 mi
5:52 pm87 °FPassing clouds.13 mph63%30.01 "Hg10 mi
6:52 pm87 °FPassing clouds.13 mph63%30.01 "Hg10 mi
7:52 pm85 °FPassing clouds.9 mph65%30.01 "Hg10 mi
8:52 pm82 °FPassing clouds.8 mph77%30.03 "Hg10 mi
9:52 pm81 °FPassing clouds.9 mph79%30.05 "Hg10 mi
11:00 pm81 °FThunderstorms. Passing clouds.7 mph74%30.08 "Hg7 mi
11:07 pm81 °FLight rain. Mostly cloudy.7 mph74%30.08 "Hg7 mi
11:52 pm81 °FPassing clouds.No wind77%30.08 "Hg9 mi
Weather by CustomWeather, © 2021

See weather overview